Time;durP1;ratioP1;P1;durP2;ratioP2;P2;SDS_P1;SDS_P2;PMS_P1;PMS_P2;Temp;Humidity;BMP_temperature;BMP_pressure;BME280_temperature;BME280_humidity;BME280_pressure;Samples;Min_cycle;Max_cycle;Signal;HPM_P1;HPM_P2
2023/04/09 00:01:07;;;;;;;56.13;18.20;;;;;;;9.73;67.20;102519.59;4944744;28;20415;-49
2023/04/09 00:03:33;;;;;;;54.28;18.10;;;;;;;9.65;67.51;102521.53;4933248;28;20030;-48
2023/04/09 00:05:58;;;;;;;61.10;19.27;;;;;;;9.58;67.46;102522.59;4947917;28;20027;-49
2023/04/09 00:08:24;;;;;;;67.82;19.63;;;;;;;9.55;67.70;102523.53;4946229;28;20122;-48
2023/04/09 00:10:51;;;;;;;62.33;18.02;;;;;;;9.58;67.56;102522.59;4940748;28;20035;-48
2023/04/09 00:13:17;;;;;;;64.38;19.48;;;;;;;9.58;67.66;102517.34;4947637;28;20232;-49
2023/04/09 00:15:43;;;;;;;63.75;21.48;;;;;;;9.58;67.56;102517.34;4941442;28;20508;-48
2023/04/09 00:18:08;;;;;;;65.72;21.88;;;;;;;9.56;67.86;102521.78;4940941;28;20507;-49
2023/04/09 00:20:34;;;;;;;71.05;19.88;;;;;;;9.54;67.84;102516.53;4938432;28;20027;-49
2023/04/09 00:22:59;;;;;;;69.22;21.92;;;;;;;9.53;67.87;102513.97;4947626;28;20087;-49
2023/04/09 00:25:25;;;;;;;84.05;23.08;;;;;;;9.53;68.05;102516.59;4947085;28;20038;-48
2023/04/09 00:27:50;;;;;;;75.53;21.90;;;;;;;9.54;68.00;102518.31;4949026;28;20611;-49
2023/04/09 00:30:16;;;;;;;70.20;23.35;;;;;;;9.55;68.09;102518.28;4948155;28;20632;-49
2023/04/09 00:32:42;;;;;;;88.90;26.40;;;;;;;9.55;68.05;102517.44;4947055;28;20051;-49
2023/04/09 00:35:08;;;;;;;84.65;23.73;;;;;;;9.53;68.17;102519.22;4951775;28;20027;-49
2023/04/09 00:37:33;;;;;;;95.55;27.73;;;;;;;9.50;67.89;102517.53;4929815;28;20031;-48
2023/04/09 00:39:59;;;;;;;95.70;23.98;;;;;;;9.52;68.22;102512.25;4944389;28;20114;-49
2023/04/09 00:42:25;;;;;;;90.43;27.25;;;;;;;9.50;68.26;102512.28;4946751;28;20058;-49
2023/04/09 00:44:50;;;;;;;95.63;27.10;;;;;;;9.50;68.28;102514.91;4939419;28;20039;-48
2023/04/09 00:47:16;;;;;;;76.80;25.30;;;;;;;9.48;68.45;102521.09;4947130;28;20424;-49
2023/04/09 00:49:43;;;;;;;77.45;24.55;;;;;;;9.46;68.42;102514.09;4940741;28;20115;-49
2023/04/09 00:52:09;;;;;;;86.97;24.92;;;;;;;9.40;68.41;102523.91;4945106;28;20043;-49
2023/04/09 00:54:34;;;;;;;85.15;24.15;;;;;;;9.42;68.54;102508.97;4946766;28;20070;-49
2023/04/09 00:57:00;;;;;;;69.70;22.45;;;;;;;9.48;68.65;102513.22;4942864;28;20023;-48
2023/04/09 00:59:26;;;;;;;76.78;22.63;;;;;;;9.51;68.43;102519.28;4942394;28;20151;-49
2023/04/09 01:01:51;;;;;;;65.50;23.77;;;;;;;9.53;68.39;102514.81;4943475;28;20031;-48
2023/04/09 01:04:17;;;;;;;83.40;22.48;;;;;;;9.59;68.32;102511.19;4942609;28;22656;-48
2023/04/09 01:06:50;;;;;;;83.15;24.75;;;;;;;9.64;68.31;102516.34;4934067;28;20054;-49
2023/04/09 01:09:35;;;;;;;81.13;22.33;;;;;;;9.61;68.21;102512.88;4941071;28;20098;-48
2023/04/09 01:12:43;;;;;;;70.95;22.90;;;;;;;9.60;68.30;102518.19;4939767;28;20031;-48
2023/04/09 01:15:12;;;;;;;58.03;19.05;;;;;;;9.56;68.42;102513.91;4947100;28;20015;-49
2023/04/09 01:18:03;;;;;;;72.10;20.00;;;;;;;9.55;68.28;102515.66;4949990;28;20498;-49
2023/04/09 01:20:38;;;;;;;65.72;19.83;;;;;;;9.54;68.16;102506.03;4942107;28;20035;-49
2023/04/09 01:23:17;;;;;;;56.67;20.15;;;;;;;9.52;68.20;102512.25;4947252;28;20055;-49
2023/04/09 01:25:51;;;;;;;62.85;17.30;;;;;;;9.48;68.24;102510.56;4947494;28;20642;-49
2023/04/09 01:28:28;;;;;;;47.42;17.02;;;;;;;9.37;68.44;102513.50;4945835;28;20032;-49
2023/04/09 01:31:01;;;;;;;47.58;17.42;;;;;;;9.29;68.59;102508.44;4944610;28;20078;-48
2023/04/09 01:33:29;;;;;;;54.35;17.90;;;;;;;9.25;68.56;102510.25;4944386;28;20087;-49
2023/04/09 01:35:56;;;;;;;59.83;18.58;;;;;;;9.22;68.70;102509.47;4946753;28;20031;-49
2023/04/09 01:38:22;;;;;;;52.83;17.70;;;;;;;9.17;68.83;102511.31;4938811;28;20488;-48
2023/04/09 01:40:49;;;;;;;53.70;18.85;;;;;;;9.12;68.94;102509.69;4941660;28;20179;-48
2023/04/09 01:43:16;;;;;;;45.13;16.58;;;;;;;9.03;68.97;102512.50;4936530;28;20118;-49
2023/04/09 01:45:44;;;;;;;51.00;17.08;;;;;;;8.97;68.99;102507.41;4939884;28;20046;-48
2023/04/09 01:48:12;;;;;;;48.50;17.10;;;;;;;8.93;69.14;102513.63;4945112;28;20118;-49
2023/04/09 01:50:38;;;;;;;46.97;17.95;;;;;;;8.84;69.21;102515.56;4947507;28;20031;-49
2023/04/09 01:53:04;;;;;;;46.70;17.63;;;;;;;8.82;69.21;102509.47;4936030;28;20039;-48
2023/04/09 01:55:30;;;;;;;46.35;17.10;;;;;;;8.82;69.22;102519.97;4934688;28;20095;-48
2023/04/09 01:57:55;;;;;;;29.35;10.90;;;;;;;8.80;69.26;102513.91;4942433;28;20594;-48
2023/04/09 02:00:21;;;;;;;47.67;17.33;;;;;;;8.82;69.36;102513.84;4953104;28;20052;-48
2023/04/09 02:03:04;;;;;;;46.83;16.08;;;;;;;8.79;69.42;102519.16;4950752;28;20035;-48
2023/04/09 02:05:48;;;;;;;47.83;17.05;;;;;;;8.75;69.15;102523.63;4952012;28;20039;-49
2023/04/09 02:08:19;;;;;;;47.17;17.85;;;;;;;8.72;69.49;102520.22;4924592;29;20049;-49
2023/04/09 02:10:52;;;;;;;49.70;17.40;;;;;;;8.66;69.64;102519.44;4945314;28;20039;-49
2023/04/09 02:13:19;;;;;;;48.33;17.23;;;;;;;8.69;69.49;102510.66;4936988;28;20290;-48
2023/04/09 02:15:45;;;;;;;43.30;18.10;;;;;;;8.72;69.41;102513.19;4948960;28;20023;-49
2023/04/09 02:18:28;;;;;;;37.47;16.33;;;;;;;8.74;69.54;102514.03;4948043;28;20071;-48
2023/04/09 02:20:55;;;;;;;41.92;15.45;;;;;;;8.88;69.31;102510.22;4944323;28;20028;-48
2023/04/09 02:23:21;;;;;;;53.50;17.90;;;;;;;8.77;69.29;102515.72;4944172;28;20031;-48
2023/04/09 02:25:47;;;;;;;50.65;17.92;;;;;;;8.75;69.50;102518.38;4945749;28;20030;-50
2023/04/09 02:28:12;;;;;;;49.10;17.00;;;;;;;8.71;69.62;102516.69;4944427;28;20042;-48
2023/04/09 02:30:38;;;;;;;48.90;15.88;;;;;;;8.65;69.58;102515.06;4944273;28;20055;-49
2023/04/09 02:33:04;;;;;;;49.45;17.67;;;;;;;8.66;69.88;102516.81;4940269;28;20056;-50
2023/04/09 02:35:29;;;;;;;43.10;16.13;;;;;;;8.66;70.06;102518.59;4947420;28;20038;-49
2023/04/09 02:37:55;;;;;;;44.10;17.10;;;;;;;8.66;69.69;102523.84;4948461;28;20042;-49
2023/04/09 02:40:20;;;;;;;44.97;15.05;;;;;;;8.63;70.13;102516.00;4945606;28;20046;-49
2023/04/09 02:42:45;;;;;;;55.50;16.00;;;;;;;8.64;69.89;102518.59;4943650;28;20039;-49
2023/04/09 02:45:11;;;;;;;41.45;14.35;;;;;;;8.65;69.83;102512.44;4948796;28;20039;-49
2023/04/09 02:47:36;;;;;;;44.78;15.93;;;;;;;8.66;69.74;102515.97;4945847;28;20035;-49
2023/04/09 02:50:02;;;;;;;39.30;14.02;;;;;;;8.69;69.97;102515.91;4947494;28;20035;-49
2023/04/09 02:52:27;;;;;;;34.08;13.38;;;;;;;8.71;69.76;102514.06;4940488;28;20126;-48
2023/04/09 02:54:52;;;;;;;32.97;13.32;;;;;;;8.66;69.46;102510.72;4943751;28;20411;-49
2023/04/09 02:57:18;;;;;;;33.85;12.43;;;;;;;8.58;69.60;102507.38;4947327;28;20062;-49
2023/04/09 02:59:44;;;;;;;32.42;13.60;;;;;;;8.50;69.82;102504.91;4943193;28;20035;-49
2023/04/09 03:02:09;;;;;;;33.25;11.68;;;;;;;8.50;69.86;102508.41;4944369;28;20101;-49
2023/04/09 03:04:35;;;;;;;32.67;11.70;;;;;;;8.44;69.93;102508.50;4943899;28;20476;-48
2023/04/09 03:07:00;;;;;;;36.00;12.63;;;;;;;8.34;69.84;102515.66;4943726;28;20055;-48
2023/04/09 03:09:26;;;;;;;33.00;11.90;;;;;;;8.29;69.95;102507.06;4940651;28;20047;-48
2023/04/09 03:11:51;;;;;;;46.00;16.35;;;;;;;8.17;70.37;102512.50;4946543;28;20027;-49
2023/04/09 03:14:17;;;;;;;43.50;14.55;;;;;;;8.17;70.56;102512.50;4946402;28;20043;-48
2023/04/09 03:16:42;;;;;;;34.30;12.63;;;;;;;8.15;70.64;102514.31;4944607;28;20039;-49
2023/04/09 03:19:07;;;;;;;44.05;15.02;;;;;;;8.11;70.53;102503.00;4944587;28;20031;-48
2023/04/09 03:21:33;;;;;;;35.00;14.18;;;;;;;8.13;70.37;102509.09;4936217;28;20073;-48
2023/04/09 03:23:58;;;;;;;40.30;13.65;;;;;;;8.08;70.62;102509.19;4943718;28;20050;-48
2023/04/09 03:26:24;;;;;;;32.20;13.75;;;;;;;8.02;70.43;102504.03;4930932;28;20515;-50
2023/04/09 03:28:49;;;;;;;57.92;13.52;;;;;;;8.01;70.50;102502.34;4931223;28;20118;-48
2023/04/09 03:31:15;;;;;;;39.72;12.60;;;;;;;8.03;70.48;102502.31;4943498;28;20420;-49
2023/04/09 03:33:40;;;;;;;40.20;15.40;;;;;;;8.11;70.65;102502.16;4948680;28;20074;-49
2023/04/09 03:36:06;;;;;;;36.75;14.00;;;;;;;8.10;70.76;102496.03;4948375;28;20046;-50
2023/04/09 03:38:31;;;;;;;45.45;14.65;;;;;;;8.14;70.54;102505.56;4940303;28;20163;-49
2023/04/09 03:40:57;;;;;;;48.13;14.75;;;;;;;8.12;70.66;102499.50;4945048;28;20591;-49
2023/04/09 03:43:22;;;;;;;37.88;14.07;;;;;;;8.17;70.56;102505.53;4949838;28;20038;-48
2023/04/09 03:45:48;;;;;;;41.88;13.32;;;;;;;8.22;70.84;102495.81;4948827;28;20126;-48
2023/04/09 03:48:13;;;;;;;44.88;15.48;;;;;;;8.27;70.72;102498.34;4944525;28;20032;-48
2023/04/09 03:50:40;;;;;;;37.50;14.65;;;;;;;8.28;70.86;102499.19;4944524;28;20032;-49
2023/04/09 03:53:06;;;;;;;51.05;15.13;;;;;;;8.32;70.86;102499.09;4947432;28;20031;-48
2023/04/09 03:55:31;;;;;;;40.95;14.40;;;;;;;8.34;70.98;102502.56;4944205;28;20031;-48
2023/04/09 03:57:56;;;;;;;56.35;21.55;;;;;;;8.38;70.95;102501.59;4947222;28;20085;-50
2023/04/09 04:00:22;;;;;;;37.33;14.02;;;;;;;8.43;70.80;102504.13;4946571;28;20389;-49
2023/04/09 04:02:47;;;;;;;42.20;15.30;;;;;;;8.44;70.85;102499.75;4943288;28;20038;-48
2023/04/09 04:05:13;;;;;;;37.42;15.10;;;;;;;8.43;70.69;102504.13;4936930;28;20062;-49
2023/04/09 04:07:38;;;;;;;38.42;12.77;;;;;;;8.41;70.83;102505.06;4940626;28;20035;-48
2023/04/09 04:10:07;;;;;;;40.85;14.68;;;;;;;8.40;70.58;102509.44;4938245;28;20035;-48
2023/04/09 04:12:32;;;;;;;30.52;12.52;;;;;;;8.44;70.80;102505.00;4951094;28;20072;-48
2023/04/09 04:14:58;;;;;;;36.97;14.95;;;;;;;8.42;70.72;102504.19;4926086;29;20607;-49
2023/04/09 04:17:23;;;;;;;40.38;16.13;;;;;;;8.45;70.67;102502.34;4943472;28;20049;-49
2023/04/09 04:19:49;;;;;;;50.63;14.70;;;;;;;8.43;70.73;102512.00;4946385;28;20035;-49
2023/04/09 04:22:14;;;;;;;37.50;12.30;;;;;;;8.38;70.76;102506.84;4948971;28;20043;-48
2023/04/09 04:24:39;;;;;;;37.85;14.02;;;;;;;8.39;70.35;102507.75;4951262;28;20024;-48
2023/04/09 04:27:05;;;;;;;40.92;14.00;;;;;;;8.34;70.48;102514.81;4951116;28;20035;-48
2023/04/09 04:29:31;;;;;;;47.08;15.35;;;;;;;8.29;70.28;102521.91;4944936;28;20038;-48
2023/04/09 04:31:56;;;;;;;41.50;14.80;;;;;;;8.24;70.32;102519.38;4930383;28;20153;-48
2023/04/09 04:34:22;;;;;;;46.92;15.95;;;;;;;8.20;70.63;102523.81;4952259;28;20070;-50
2023/04/09 04:36:47;;;;;;;70.70;22.88;;;;;;;8.23;70.70;102518.53;4944761;28;20035;-49
2023/04/09 04:39:12;;;;;;;69.28;21.98;;;;;;;8.24;70.58;102519.38;4946429;28;20062;-48
2023/04/09 04:41:38;;;;;;;68.40;20.85;;;;;;;8.24;70.36;102514.13;4946185;28;20034;-49
2023/04/09 04:44:03;;;;;;;55.00;20.00;;;;;;;8.20;70.62;102513.34;4945773;29;20472;-48
2023/04/09 04:46:29;;;;;;;52.55;18.20;;;;;;;8.20;70.53;102507.22;4945073;28;20122;-49
2023/04/09 04:48:54;;;;;;;47.42;16.65;;;;;;;8.22;70.59;102511.56;4947403;28;20050;-48
2023/04/09 04:51:20;;;;;;;51.00;16.60;;;;;;;8.21;70.38;102515.06;4947502;28;20027;-49
2023/04/09 04:53:45;;;;;;;44.08;17.17;;;;;;;8.19;70.52;102514.22;4944205;28;20031;-48
2023/04/09 04:56:14;;;;;;;56.15;16.60;;;;;;;8.16;70.76;102513.44;4940549;28;20129;-50
2023/04/09 04:58:40;;;;;;;44.97;14.77;;;;;;;8.18;70.52;102502.00;4946418;29;20027;-49
2023/04/09 05:01:05;;;;;;;44.75;15.82;;;;;;;8.19;70.38;102506.38;4937780;28;20035;-48
2023/04/09 05:03:31;;;;;;;53.65;18.25;;;;;;;8.17;70.49;102502.03;4941364;29;20057;-49
2023/04/09 05:05:56;;;;;;;60.45;18.90;;;;;;;8.09;70.39;102510.91;4938898;28;20054;-49
2023/04/09 05:08:21;;;;;;;59.03;19.98;;;;;;;8.09;70.47;102513.53;4924292;28;20086;-48
2023/04/09 05:10:47;;;;;;;115.22;40.05;;;;;;;8.14;70.90;102515.22;4943480;28;20041;-48
2023/04/09 05:13:12;;;;;;;46.67;18.13;;;;;;;8.17;70.56;102518.63;4927912;29;20050;-48
2023/04/09 05:15:39;;;;;;;49.65;17.02;;;;;;;8.17;70.56;102518.63;4947023;28;20086;-48
2023/04/09 05:18:05;;;;;;;45.92;15.38;;;;;;;8.21;70.49;102522.94;4948157;28;20031;-49
2023/04/09 05:20:31;;;;;;;36.90;14.48;;;;;;;8.22;70.17;102522.03;4948052;28;20031;-49
2023/04/09 05:22:56;;;;;;;31.75;12.45;;;;;;;8.22;70.11;102524.66;4947619;28;20038;-49
2023/04/09 05:25:22;;;;;;;44.75;14.00;;;;;;;8.21;70.68;102520.31;4951790;28;20082;-49
2023/04/09 05:27:47;;;;;;;49.50;16.73;;;;;;;8.23;70.65;102525.50;4951315;28;20447;-48
2023/04/09 05:30:12;;;;;;;43.75;17.25;;;;;;;8.30;70.58;102523.63;4932323;29;20039;-48
2023/04/09 05:32:38;;;;;;;50.22;18.90;;;;;;;8.37;70.13;102541.00;4938846;29;20138;-50
2023/04/09 05:35:04;;;;;;;59.55;18.95;;;;;;;8.33;70.30;102534.06;4950053;28;20030;-49
2023/04/09 05:37:29;;;;;;;48.13;16.23;;;;;;;8.32;70.25;102532.34;4944022;28;20039;-49
2023/04/09 05:39:55;;;;;;;37.25;14.30;;;;;;;8.32;70.40;102533.19;4949892;28;20031;-49
2023/04/09 05:42:21;;;;;;;67.93;26.10;;;;;;;8.30;70.05;102535.00;4952878;28;20027;-48
2023/04/09 05:44:46;;;;;;;49.63;16.80;;;;;;;8.28;70.43;102530.66;4945774;28;20039;-48
2023/04/09 05:47:12;;;;;;;44.05;15.52;;;;;;;8.29;70.49;102532.41;4945970;28;20411;-48
2023/04/09 05:49:37;;;;;;;42.28;14.50;;;;;;;8.28;70.27;102535.91;4952969;28;20042;-49
2023/04/09 05:52:03;;;;;;;44.45;16.83;;;;;;;8.32;70.47;102537.59;4952019;28;20035;-48
2023/04/09 05:54:28;;;;;;;43.55;16.42;;;;;;;8.33;70.28;102541.94;4946672;28;20403;-47
2023/04/09 05:56:54;;;;;;;37.97;14.43;;;;;;;8.26;70.22;102537.69;4946879;28;20399;-49
2023/04/09 05:59:19;;;;;;;40.08;14.88;;;;;;;8.15;70.12;102536.16;4948804;28;20031;-49
2023/04/09 06:01:45;;;;;;;43.45;15.93;;;;;;;8.09;70.39;102536.28;4948065;28;20035;-49
2023/04/09 06:04:10;;;;;;;33.08;12.93;;;;;;;8.13;70.65;102534.47;4939729;28;20503;-49
2023/04/09 06:06:37;;;;;;;36.20;12.75;;;;;;;8.13;70.29;102543.19;4947142;28;20038;-49
2023/04/09 06:09:03;;;;;;;32.03;11.60;;;;;;;8.12;70.76;102537.97;4952373;28;20039;-49
2023/04/09 06:11:29;;;;;;;39.00;13.88;;;;;;;8.12;70.46;102536.19;4951693;28;20023;-49
2023/04/09 06:13:55;;;;;;;39.03;14.07;;;;;;;8.11;70.40;102539.72;4945862;28;20041;-49
2023/04/09 06:16:20;;;;;;;47.53;14.68;;;;;;;8.11;70.40;102542.34;4944619;28;20384;-50
2023/04/09 06:18:48;;;;;;;41.83;16.13;;;;;;;8.17;70.43;102550.09;4952529;28;20540;-49
2023/04/09 06:21:14;;;;;;;40.33;13.68;;;;;;;8.23;70.64;102555.25;4946431;28;20038;-49
2023/04/09 06:23:40;;;;;;;35.20;13.63;;;;;;;8.30;70.26;102547.25;4932855;28;20263;-49
2023/04/09 06:26:05;;;;;;;34.65;15.05;;;;;;;8.34;70.48;102546.28;4951669;28;20035;-50
2023/04/09 06:28:31;;;;;;;32.70;13.40;;;;;;;8.37;70.16;102559.34;4954376;28;20492;-49
2023/04/09 06:31:00;;;;;;;30.63;13.35;;;;;;;8.38;70.47;102558.47;4941964;28;20043;-51
2023/04/09 06:33:26;;;;;;;33.10;12.90;;;;;;;8.35;70.25;102555.91;4948401;28;20397;-49
2023/04/09 06:35:51;;;;;;;30.58;11.82;;;;;;;8.37;70.65;102561.97;4948801;28;20054;-53
2023/04/09 06:38:17;;;;;;;35.22;13.30;;;;;;;8.45;70.78;102573.19;4939053;28;20027;-50
2023/04/09 06:40:43;;;;;;;32.10;12.48;;;;;;;8.49;70.38;102561.78;4946764;28;20563;-49
2023/04/09 06:43:08;;;;;;;32.72;14.35;;;;;;;8.52;70.57;102572.22;4939224;28;20062;-48
2023/04/09 06:45:34;;;;;;;40.33;16.35;;;;;;;8.60;70.27;102568.56;4947508;28;20053;-48
2023/04/09 06:48:00;;;;;;;31.73;14.32;;;;;;;8.63;70.00;102553.59;4953843;28;20062;-49
2023/04/09 06:50:26;;;;;;;45.45;18.25;;;;;;;8.66;69.74;102555.31;4949679;28;21926;-48
2023/04/09 06:52:53;;;;;;;40.13;15.98;;;;;;;8.66;69.25;102550.06;4950552;28;20407;-48
2023/04/09 06:55:19;;;;;;;43.45;19.88;;;;;;;8.63;69.58;102547.50;4948153;28;20052;-49
2023/04/09 06:57:44;;;;;;;46.92;21.27;;;;;;;8.50;69.36;102537.25;4945521;28;20043;-49
2023/04/09 07:00:11;;;;;;;50.70;18.50;;;;;;;8.43;69.60;102532.13;4898427;29;20038;-49
2023/04/09 07:02:36;;;;;;;31.77;12.60;;;;;;;8.44;69.70;102541.75;4942041;28;20039;-49
2023/04/09 07:05:03;;;;;;;33.88;12.88;;;;;;;8.49;69.75;102551.28;4948625;28;20026;-48
2023/04/09 07:07:28;;;;;;;39.15;15.43;;;;;;;8.52;69.68;102545.97;4945011;28;20031;-48
2023/04/09 07:09:54;;;;;;;42.33;16.05;;;;;;;8.53;69.74;102547.72;4946813;28;20042;-49
2023/04/09 07:12:30;;;;;;;41.28;17.33;;;;;;;8.57;69.59;102542.38;4948456;28;20131;-48
2023/04/09 07:15:00;;;;;;;44.50;18.48;;;;;;;8.63;69.63;102555.38;4938150;28;20061;-48
2023/04/09 07:17:25;;;;;;;40.10;15.88;;;;;;;8.69;69.56;102552.63;4945786;28;20388;-48
2023/04/09 07:19:51;;;;;;;40.92;15.77;;;;;;;8.72;69.60;102557.81;4942130;28;20030;-48
2023/04/09 07:22:17;;;;;;;49.65;16.90;;;;;;;8.66;69.41;102553.53;4945547;28;20058;-49
2023/04/09 07:24:42;;;;;;;47.53;16.45;;;;;;;8.59;69.78;102556.31;4942903;28;20042;-48
2023/04/09 07:27:08;;;;;;;38.08;16.00;;;;;;;8.64;69.90;102555.34;4950524;28;20489;-48
2023/04/09 07:29:34;;;;;;;31.83;14.07;;;;;;;8.63;69.77;102558.00;4944898;28;20047;-49
2023/04/09 07:32:01;;;;;;;49.40;19.00;;;;;;;8.69;69.75;102564.00;4947637;28;20035;-49
2023/04/09 07:34:27;;;;;;;42.85;16.88;;;;;;;8.75;69.77;102562.13;4949576;28;20039;-48
2023/04/09 07:36:52;;;;;;;33.03;14.68;;;;;;;8.82;69.53;102566.34;4936352;28;20047;-49
2023/04/09 07:39:18;;;;;;;32.28;15.20;;;;;;;8.84;69.43;102559.31;4939328;28;20118;-50
2023/04/09 07:41:43;;;;;;;35.90;14.55;;;;;;;8.85;69.50;102563.66;4942848;28;20065;-49
2023/04/09 07:44:09;;;;;;;30.23;13.88;;;;;;;8.93;69.05;102566.97;4944725;28;20035;-49
2023/04/09 07:46:34;;;;;;;29.52;14.52;;;;;;;8.93;69.08;102564.34;4923028;29;20926;-49
2023/04/09 07:49:00;;;;;;;39.75;14.68;;;;;;;8.97;69.22;102562.56;4940095;28;20090;-50
2023/04/09 07:51:26;;;;;;;38.90;16.80;;;;;;;8.98;69.09;102569.53;4942363;28;20104;-49
2023/04/09 07:53:51;;;;;;;31.23;14.40;;;;;;;9.01;69.41;102569.44;4943627;28;20032;-50
2023/04/09 07:56:17;;;;;;;33.63;16.58;;;;;;;9.00;69.13;102570.34;4944554;28;20027;-49
2023/04/09 07:58:43;;;;;;;38.78;17.90;;;;;;;9.00;69.10;102575.59;4944432;28;20118;-50
2023/04/09 08:01:09;;;;;;;32.58;14.65;;;;;;;8.98;69.22;102574.78;4951215;28;20031;-49
2023/04/09 08:03:35;;;;;;;42.60;16.80;;;;;;;9.04;69.39;102574.63;4949513;28;20038;-49
2023/04/09 08:06:00;;;;;;;44.72;18.10;;;;;;;9.04;69.34;102569.38;4930371;28;20122;-49
2023/04/09 08:08:26;;;;;;;38.47;16.95;;;;;;;9.08;69.06;102573.66;4943490;28;20035;-51
2023/04/09 08:10:52;;;;;;;33.75;15.27;;;;;;;9.14;68.96;102580.53;4937975;28;20384;-51
2023/04/09 08:13:17;;;;;;;32.47;14.30;;;;;;;9.15;69.01;102567.38;4934781;29;20046;-49
2023/04/09 08:15:43;;;;;;;33.30;13.90;;;;;;;9.14;68.95;102573.56;4932932;28;20035;-49
2023/04/09 08:18:08;;;;;;;35.47;13.45;;;;;;;9.13;68.99;102571.81;4919497;28;20050;-49
2023/04/09 08:20:34;;;;;;;26.52;11.65;;;;;;;9.17;69.07;102572.59;4933040;28;21019;-48
2023/04/09 08:22:59;;;;;;;25.17;10.95;;;;;;;9.23;69.07;102575.06;4927451;28;20039;-49
2023/04/09 08:25:25;;;;;;;27.83;12.25;;;;;;;9.20;69.35;102569.91;4933446;28;20770;-49
2023/04/09 08:27:50;;;;;;;24.33;10.38;;;;;;;9.23;68.83;102571.59;4942974;28;20031;-49
2023/04/09 08:30:16;;;;;;;26.73;11.05;;;;;;;9.28;68.71;102567.97;4939881;28;20035;-48
2023/04/09 08:32:43;;;;;;;28.52;11.98;;;;;;;9.31;68.57;102572.28;4940586;28;20043;-50
2023/04/09 08:35:09;;;;;;;24.08;10.65;;;;;;;9.39;68.58;102570.34;4942511;28;20039;-49
2023/04/09 08:37:35;;;;;;;26.95;12.93;;;;;;;9.48;68.45;102574.53;4939426;28;20450;-48
2023/04/09 08:40:01;;;;;;;24.90;10.82;;;;;;;9.55;68.21;102569.97;4945430;28;20036;-49
2023/04/09 08:42:27;;;;;;;32.65;12.65;;;;;;;9.53;68.26;102571.78;4937177;28;20078;-48
2023/04/09 08:44:53;;;;;;;26.25;12.57;;;;;;;9.50;68.22;102567.47;4938679;28;20082;-49
2023/04/09 08:47:19;;;;;;;26.80;11.38;;;;;;;9.55;68.24;102576.09;4943341;28;20043;-50
2023/04/09 08:49:45;;;;;;;29.33;10.85;;;;;;;9.56;68.19;102562.06;4940394;28;20077;-50
2023/04/09 08:52:11;;;;;;;32.20;14.05;;;;;;;9.62;68.28;102568.91;4939667;28;20035;-49
2023/04/09 08:54:36;;;;;;;25.27;11.35;;;;;;;9.72;68.09;102564.31;4928637;28;20046;-49
2023/04/09 08:57:05;;;;;;;25.02;12.77;;;;;;;9.75;67.89;102580.88;4940403;28;20043;-50
2023/04/09 08:59:35;;;;;;;30.25;11.00;;;;;;;9.71;67.96;102576.59;4943521;28;20063;-49
2023/04/09 09:02:11;;;;;;;26.07;11.67;;;;;;;9.75;67.89;102573.00;4936099;28;20051;-49
2023/04/09 09:04:47;;;;;;;27.98;10.70;;;;;;;9.85;67.74;102572.75;4940459;28;20177;-49
2023/04/09 09:07:13;;;;;;;29.20;11.50;;;;;;;9.91;67.76;102568.19;4945828;28;20042;-50
2023/04/09 09:09:56;;;;;;;26.00;11.68;;;;;;;10.01;67.50;102570.59;4942568;28;21425;-49
2023/04/09 09:12:30;;;;;;;30.10;11.93;;;;;;;10.09;67.42;102568.63;4939126;28;20114;-49
2023/04/09 09:14:55;;;;;;;26.88;12.85;;;;;;;10.11;67.44;102566.81;4939945;28;20058;-49
2023/04/09 09:17:20;;;;;;;28.35;11.73;;;;;;;10.05;67.49;102575.75;4933633;28;20122;-50
2023/04/09 09:19:46;;;;;;;26.70;11.65;;;;;;;10.06;67.55;102581.84;4942426;28;20031;-49
2023/04/09 09:22:12;;;;;;;24.50;11.95;;;;;;;10.04;67.67;102579.28;4939160;28;20051;-49
2023/04/09 09:24:48;;;;;;;31.60;12.02;;;;;;;10.03;67.74;102577.56;4932826;28;20125;-49
2023/04/09 09:27:38;;;;;;;28.52;11.48;;;;;;;9.98;67.67;102576.78;4939281;28;20110;-49
2023/04/09 09:30:05;;;;;;;28.25;11.27;;;;;;;9.98;67.62;102584.69;4940524;28;20114;-49
2023/04/09 09:32:34;;;;;;;26.55;12.30;;;;;;;10.02;67.49;102581.09;4944115;28;20067;-48
2023/04/09 09:35:04;;;;;;;23.98;11.00;;;;;;;10.02;67.54;102586.34;4944210;28;20027;-48
2023/04/09 09:37:30;;;;;;;24.88;11.13;;;;;;;9.98;67.73;102581.22;4940007;28;20039;-48
2023/04/09 09:39:57;;;;;;;28.05;12.18;;;;;;;10.04;67.58;102579.28;4941230;28;20019;-48
2023/04/09 09:42:22;;;;;;;26.77;12.23;;;;;;;10.11;67.48;102587.88;4942962;28;20113;-49
2023/04/09 09:44:49;;;;;;;29.08;11.55;;;;;;;10.20;67.37;102573.63;4937252;28;20435;-48
2023/04/09 09:47:18;;;;;;;23.15;10.77;;;;;;;10.26;67.33;102581.31;4939484;28;20032;-51
2023/04/09 09:49:43;;;;;;;29.58;11.77;;;;;;;10.28;67.24;102573.41;4941649;28;20558;-49
2023/04/09 09:52:10;;;;;;;22.58;10.40;;;;;;;10.30;67.23;102574.19;4945017;28;20031;-48
2023/04/09 09:54:43;;;;;;;30.30;11.85;;;;;;;10.29;67.20;102575.97;4941235;28;20026;-48
2023/04/09 09:57:12;;;;;;;26.58;12.45;;;;;;;10.34;67.24;102573.22;4944323;28;20043;-49
2023/04/09 09:59:41;;;;;;;23.60;10.88;;;;;;;10.40;67.17;102573.09;4946070;28;20036;-50
2023/04/09 10:02:17;;;;;;;24.88;11.00;;;;;;;10.45;67.11;102572.97;4941217;28;20086;-48
2023/04/09 10:04:43;;;;;;;30.80;12.15;;;;;;;10.46;66.89;102570.28;4946614;28;20110;-48
2023/04/09 10:07:09;;;;;;;28.15;13.77;;;;;;;10.50;66.85;102574.56;4950833;28;20031;-52
2023/04/09 10:09:36;;;;;;;32.53;14.15;;;;;;;10.52;66.90;102569.22;4931561;29;20031;-49
2023/04/09 10:12:05;;;;;;;30.15;13.43;;;;;;;10.60;66.83;102569.00;4949698;28;20050;-48
2023/04/09 10:14:31;;;;;;;33.60;13.23;;;;;;;10.56;67.08;102560.34;4948570;28;20023;-49
2023/04/09 10:16:57;;;;;;;27.80;12.55;;;;;;;10.60;67.03;102567.25;4951075;28;20058;-48
2023/04/09 10:19:23;;;;;;;35.45;15.30;;;;;;;10.66;66.78;102556.53;4946412;29;20511;-48
2023/04/09 10:22:15;;;;;;;28.98;13.90;;;;;;;10.65;66.77;102560.09;4938552;28;20042;-49
2023/04/09 10:24:41;;;;;;;30.35;12.02;;;;;;;10.68;67.03;102554.72;4936582;28;20063;-49
2023/04/09 10:27:14;;;;;;;33.65;16.45;;;;;;;10.76;67.11;102551.88;4940747;28;20071;-49
2023/04/09 10:29:48;;;;;;;35.13;15.65;;;;;;;10.83;66.78;102547.28;4947549;28;20035;-49
2023/04/09 10:32:22;;;;;;;33.90;13.23;;;;;;;10.89;66.68;102552.38;4943039;28;20720;-49
2023/04/09 10:34:49;;;;;;;32.13;14.65;;;;;;;10.96;66.45;102550.41;4944727;28;20031;-50
2023/04/09 10:37:24;;;;;;;33.47;14.07;;;;;;;11.00;66.32;102557.31;4944556;28;20084;-49
2023/04/09 10:39:51;;;;;;;33.40;13.10;;;;;;;10.98;66.47;102554.72;4943469;28;20703;-49
2023/04/09 10:42:23;;;;;;;38.25;17.65;;;;;;;10.94;66.45;102554.88;4947069;28;20039;-49
2023/04/09 10:45:08;;;;;;;27.38;12.77;;;;;;;11.00;66.36;102554.69;4944453;28;20028;-50
2023/04/09 10:47:35;;;;;;;37.05;16.02;;;;;;;11.02;66.46;102546.72;4946330;28;20058;-52
2023/04/09 10:50:20;;;;;;;37.05;13.70;;;;;;;11.07;66.23;102550.94;4939776;28;20046;-49
2023/04/09 10:52:47;;;;;;;30.30;12.88;;;;;;;11.09;66.43;102550.91;4939657;28;20167;-49
2023/04/09 10:55:38;;;;;;;32.17;13.23;;;;;;;11.13;66.25;102557.78;4941965;28;20463;-48
2023/04/09 10:58:05;;;;;;;39.00;17.02;;;;;;;11.14;66.38;102546.34;4942763;29;20042;-49
2023/04/09 11:00:30;;;;;;;36.42;14.07;;;;;;;11.15;66.25;102548.06;4942114;28;20071;-49
2023/04/09 11:03:03;;;;;;;45.97;19.38;;;;;;;11.16;65.94;102539.25;4945847;28;20031;-48
2023/04/09 11:05:38;;;;;;;46.20;17.48;;;;;;;11.14;66.20;102551.63;4944071;28;20127;-49
2023/04/09 11:08:11;;;;;;;33.70;14.73;;;;;;;11.17;66.05;102543.63;4939642;28;20038;-49
2023/04/09 11:10:39;;;;;;;35.55;15.73;;;;;;;11.19;66.09;102544.44;4945126;28;20032;-49
2023/04/09 11:13:05;;;;;;;32.58;14.50;;;;;;;11.26;66.02;102540.72;4940027;28;20031;-49
2023/04/09 11:15:39;;;;;;;32.22;13.73;;;;;;;11.32;65.81;102542.28;4934616;28;20046;-49
2023/04/09 11:18:08;;;;;;;36.28;14.88;;;;;;;11.28;65.69;102544.13;4924724;29;20734;-49